Time;durP1;ratioP1;P1;durP2;ratioP2;P2;SDS_P1;SDS_P2;PMS_P1;PMS_P2;Temp;Humidity;BMP_temperature;BMP_pressure;BME280_temperature;BME280_humidity;BME280_pressure;Samples;Min_cycle;Max_cycle;Signal;HPM_P1;HPM_P2
2022/05/12 00:01:01;;;;;;;8.33;7.57;;;;;;;15.85;100.00;99219.19;4822751;29;20218;-74
2022/05/12 00:03:28;;;;;;;8.00;7.20;;;;;;;15.90;100.00;99218.38;4822355;29;20268;-75
2022/05/12 00:05:54;;;;;;;7.83;7.13;;;;;;;15.87;100.00;99213.47;4806501;29;20201;-76
2022/05/12 00:08:22;;;;;;;7.80;7.10;;;;;;;15.91;100.00;99213.78;4822232;29;20193;-75
2022/05/12 00:10:48;;;;;;;8.07;7.37;;;;;;;15.93;100.00;99211.63;4822458;29;20858;-75
2022/05/12 00:13:15;;;;;;;7.97;7.27;;;;;;;15.93;100.00;99215.13;4823311;29;20193;-75
2022/05/12 00:15:42;;;;;;;8.40;7.53;;;;;;;15.97;100.00;99216.22;4822090;29;20641;-75
2022/05/12 00:18:09;;;;;;;8.10;7.40;;;;;;;15.99;100.00;99222.19;4822547;29;20262;-76
2022/05/12 00:20:38;;;;;;;7.50;6.97;;;;;;;16.01;100.00;99211.91;4821975;29;20715;-76
2022/05/12 00:23:16;;;;;;;7.80;7.20;;;;;;;16.07;100.00;99212.75;4822298;29;20261;-76
2022/05/12 00:25:47;;;;;;;7.50;6.90;;;;;;;16.12;100.00;99210.06;4822290;29;20273;-75
2022/05/12 00:28:16;;;;;;;7.03;6.47;;;;;;;16.11;100.00;99209.25;4806837;29;20612;-75
2022/05/12 00:30:44;;;;;;;7.20;6.53;;;;;;;16.18;100.00;99209.84;4805544;29;20574;-75
2022/05/12 00:33:12;;;;;;;8.30;6.80;;;;;;;16.26;100.00;99209.31;4806357;29;20233;-76
2022/05/12 00:35:41;;;;;;;7.00;6.40;;;;;;;16.27;100.00;99204.72;4821911;29;20835;-76
2022/05/12 00:38:08;;;;;;;6.90;6.40;;;;;;;16.29;100.00;99203.34;4822132;29;20194;-75
2022/05/12 00:40:35;;;;;;;7.30;6.57;;;;;;;16.33;100.00;99205.56;4821973;29;20214;-75
2022/05/12 00:43:05;;;;;;;7.53;6.93;;;;;;;16.35;100.00;99206.06;4822417;29;20190;-75
2022/05/12 00:45:38;;;;;;;7.10;6.50;;;;;;;16.37;100.00;99203.94;4821942;29;20188;-76
2022/05/12 00:48:05;;;;;;;7.27;6.63;;;;;;;16.42;100.00;99209.34;4821950;29;20238;-75
2022/05/12 00:50:36;;;;;;;6.77;6.23;;;;;;;16.44;100.00;99205.28;4821696;29;20214;-76
2022/05/12 00:53:04;;;;;;;7.23;6.53;;;;;;;16.44;100.00;99197.16;4805989;29;20186;-76
2022/05/12 00:55:33;;;;;;;7.67;6.87;;;;;;;16.46;100.00;99205.84;4805379;29;20218;-76
2022/05/12 00:58:02;;;;;;;7.40;6.70;;;;;;;16.49;100.00;99204.47;4821931;29;20250;-76
2022/05/12 01:00:29;;;;;;;8.43;6.80;;;;;;;16.51;100.00;99213.97;4805346;29;20186;-77
2022/05/12 01:02:58;;;;;;;8.03;6.53;;;;;;;16.50;100.00;99206.94;4821659;29;20670;-76
2022/05/12 01:05:25;;;;;;;7.17;6.57;;;;;;;16.52;100.00;99201.22;4805561;29;20194;-76
2022/05/12 01:07:55;;;;;;;7.40;6.80;;;;;;;16.52;100.00;99209.34;4822000;29;20262;-76
2022/05/12 01:10:23;;;;;;;7.17;6.03;;;;;;;16.53;100.00;99202.88;4805576;29;20716;-76
2022/05/12 01:12:51;;;;;;;7.37;6.67;;;;;;;16.54;100.00;99207.19;4822023;29;20800;-76
2022/05/12 01:15:20;;;;;;;6.80;6.30;;;;;;;16.55;100.00;99196.13;4821339;29;20243;-76
2022/05/12 01:17:47;;;;;;;7.40;6.80;;;;;;;16.57;100.00;99198.53;4805456;29;20266;-75
2022/05/12 01:20:15;;;;;;;7.37;6.77;;;;;;;16.55;100.00;99195.31;4805230;29;20599;-76
2022/05/12 01:22:57;;;;;;;7.17;6.67;;;;;;;16.53;100.00;99192.84;4805129;29;20225;-76
2022/05/12 01:25:27;;;;;;;7.40;6.80;;;;;;;16.53;100.00;99189.34;4804963;29;20206;-75
2022/05/12 01:27:53;;;;;;;7.37;6.70;;;;;;;16.50;100.00;99192.59;4805706;29;20190;-75
2022/05/12 01:30:23;;;;;;;7.67;6.83;;;;;;;16.45;100.00;99193.41;4821132;29;20348;-75
2022/05/12 01:32:50;;;;;;;7.67;7.00;;;;;;;16.38;100.00;99203.66;4805518;29;20225;-75
2022/05/12 01:35:24;;;;;;;8.07;6.70;;;;;;;16.32;100.00;99217.44;4804817;29;20216;-75
2022/05/12 01:37:51;;;;;;;8.00;7.30;;;;;;;16.25;100.00;99220.38;4821390;29;20190;-76
2022/05/12 01:40:21;;;;;;;8.00;7.20;;;;;;;16.16;100.00;99225.50;4804953;29;20222;-75
2022/05/12 01:42:48;;;;;;;7.77;7.10;;;;;;;16.03;100.00;99230.56;4821537;29;20228;-75
2022/05/12 01:45:16;;;;;;;7.53;6.93;;;;;;;15.96;100.00;99233.50;4804772;29;20229;-75
2022/05/12 01:47:43;;;;;;;7.53;6.93;;;;;;;15.94;100.00;99232.16;4804847;29;20342;-75
2022/05/12 01:50:11;;;;;;;8.13;7.43;;;;;;;15.91;100.00;99230.00;4819955;29;20670;-76
2022/05/12 01:52:43;;;;;;;7.37;6.63;;;;;;;15.90;100.00;99218.38;4820733;29;20666;-75
2022/05/12 01:55:12;;;;;;;8.20;7.20;;;;;;;15.93;100.00;99217.84;4821097;29;20210;-76
2022/05/12 01:57:42;;;;;;;8.67;7.87;;;;;;;15.94;100.00;99226.75;4820909;29;20224;-76
2022/05/12 02:00:15;;;;;;;8.40;7.70;;;;;;;15.93;100.00;99225.13;4821039;29;20209;-77
2022/05/12 02:02:43;;;;;;;8.60;7.80;;;;;;;15.93;100.00;99227.84;4820627;29;20677;-76
2022/05/12 02:05:11;;;;;;;8.00;7.30;;;;;;;15.92;100.00;99213.50;4821286;29;20239;-77
2022/05/12 02:07:40;;;;;;;8.03;7.43;;;;;;;15.95;100.00;99229.22;4804996;29;20217;-76
2022/05/12 02:10:10;;;;;;;7.73;6.93;;;;;;;15.96;100.00;99214.59;4820796;29;20613;-76
2022/05/12 02:12:37;;;;;;;7.47;6.73;;;;;;;15.94;100.00;99211.38;4789755;29;20197;-75
2022/05/12 02:15:05;;;;;;;7.40;6.80;;;;;;;15.94;100.00;99218.66;4821065;29;20205;-76
2022/05/12 02:17:32;;;;;;;7.17;6.47;;;;;;;15.92;100.00;99226.19;4820751;29;20693;-76
2022/05/12 02:19:59;;;;;;;7.57;6.87;;;;;;;15.89;100.00;99227.56;4821405;29;20201;-76
2022/05/12 02:22:26;;;;;;;7.80;6.93;;;;;;;15.88;100.00;99225.91;4820564;29;20284;-75
2022/05/12 02:24:53;;;;;;;8.13;7.37;;;;;;;15.86;100.00;99215.38;4821029;29;20702;-76
2022/05/12 02:27:20;;;;;;;7.67;6.97;;;;;;;15.89;100.00;99224.84;4820303;29;20217;-76
2022/05/12 02:29:47;;;;;;;7.23;6.57;;;;;;;15.88;100.00;99225.09;4820560;29;20256;-76
2022/05/12 02:32:14;;;;;;;7.63;6.80;;;;;;;15.80;100.00;99232.66;4821010;29;20561;-75
2022/05/12 02:34:41;;;;;;;8.20;7.47;;;;;;;15.75;100.00;99235.31;4820568;29;20682;-76
2022/05/12 02:37:08;;;;;;;7.67;6.73;;;;;;;15.70;100.00;99234.47;4820637;29;20296;-76
2022/05/12 02:39:37;;;;;;;7.57;6.97;;;;;;;15.66;100.00;99236.09;4820744;29;20222;-76
2022/05/12 02:42:05;;;;;;;8.13;6.87;;;;;;;15.61;100.00;99234.16;4804469;29;20206;-76
2022/05/12 02:44:31;;;;;;;7.77;6.70;;;;;;;15.60;100.00;99237.13;4820572;29;20217;-75
2022/05/12 02:46:58;;;;;;;7.27;6.67;;;;;;;15.56;100.00;99241.44;4820466;29;20197;-76
2022/05/12 02:49:26;;;;;;;7.93;6.83;;;;;;;15.52;100.00;99241.13;4820758;29;20225;-76
2022/05/12 02:51:52;;;;;;;7.43;6.67;;;;;;;15.52;100.00;99243.03;4820272;29;20693;-76
2022/05/12 02:54:19;;;;;;;8.10;7.40;;;;;;;15.48;100.00;99241.88;4820217;29;20545;-76
2022/05/12 02:56:46;;;;;;;7.40;6.80;;;;;;;15.45;100.00;99240.50;4804462;29;20320;-76
2022/05/12 02:59:13;;;;;;;8.70;7.27;;;;;;;15.42;100.00;99243.75;4804188;29;20194;-76
2022/05/12 03:01:40;;;;;;;7.70;7.03;;;;;;;15.42;100.00;99243.75;4821163;29;20221;-76
2022/05/12 03:04:08;;;;;;;7.17;6.57;;;;;;;15.36;100.00;99240.19;4823119;29;20224;-76
2022/05/12 03:06:35;;;;;;;7.10;6.40;;;;;;;15.35;100.00;99251.25;4823475;29;20221;-76
2022/05/12 03:09:02;;;;;;;7.77;6.70;;;;;;;15.35;100.00;99254.75;4823726;29;20262;-75
2022/05/12 03:11:29;;;;;;;7.53;6.87;;;;;;;15.34;100.00;99255.84;4807522;29;20275;-75
2022/05/12 03:13:57;;;;;;;8.90;7.50;;;;;;;15.30;100.00;99252.00;4823705;29;20228;-75
2022/05/12 03:16:24;;;;;;;7.40;6.70;;;;;;;15.29;100.00;99258.50;4823255;29;20646;-76
2022/05/12 03:18:53;;;;;;;7.93;7.13;;;;;;;15.27;100.00;99259.81;4823335;29;20220;-76
2022/05/12 03:21:20;;;;;;;7.50;6.80;;;;;;;15.23;100.00;99251.44;4823573;29;20233;-75
2022/05/12 03:23:47;;;;;;;7.80;6.93;;;;;;;15.21;100.00;99264.34;4823249;29;20734;-75
2022/05/12 03:26:15;;;;;;;8.00;7.20;;;;;;;15.23;100.00;99270.31;4823018;29;20201;-76
2022/05/12 03:28:42;;;;;;;7.33;6.70;;;;;;;15.24;100.00;99268.44;4823296;29;20280;-76
2022/05/12 03:31:12;;;;;;;7.50;6.90;;;;;;;15.26;100.00;99263.59;4823271;29;20523;-75
2022/05/12 03:33:39;;;;;;;7.23;6.63;;;;;;;15.32;100.00;99278.75;4823640;29;20619;-75
2022/05/12 03:36:07;;;;;;;6.93;6.23;;;;;;;15.36;100.00;99269.06;4822895;29;20783;-75
2022/05/12 03:38:33;;;;;;;7.10;6.50;;;;;;;15.40;100.00;99275.56;4822829;29;20222;-75
2022/05/12 03:41:00;;;;;;;9.60;6.70;;;;;;;15.42;100.00;99276.13;4822668;29;20277;-75
2022/05/12 03:46:13;;;;;;;7.30;6.30;;;;;;;15.54;100.00;99282.19;4822891;29;20205;-75
2022/05/12 03:48:41;;;;;;;7.40;6.57;;;;;;;15.60;100.00;99286.53;4823025;29;20190;-76
2022/05/12 03:51:08;;;;;;;7.37;6.67;;;;;;;15.72;100.00;99292.53;4806921;29;20617;-75
2022/05/12 03:53:36;;;;;;;6.93;6.43;;;;;;;16.11;100.00;99309.25;4822630;29;20657;-75
2022/05/12 03:56:04;;;;;;;6.83;6.23;;;;;;;16.40;100.00;99287.19;4822549;29;20210;-75
2022/05/12 03:58:32;;;;;;;7.20;6.50;;;;;;;16.98;100.00;99392.34;4822885;29;20194;-75
2022/05/12 04:00:59;;;;;;;7.00;6.40;;;;;;;18.18;99.63;99446.09;4822501;29;20194;-75
2022/05/12 04:03:26;;;;;;;7.93;6.97;;;;;;;18.97;84.27;99340.28;4822546;29;20309;-75
2022/05/12 04:05:54;;;;;;;7.00;6.40;;;;;;;18.66;83.85;99296.22;4822530;29;20190;-74
2022/05/12 04:08:22;;;;;;;7.30;6.60;;;;;;;18.30;86.21;99302.88;4822256;29;20221;-76
2022/05/12 04:10:49;;;;;;;7.20;6.50;;;;;;;18.10;87.94;99309.19;4822440;29;20293;-75
2022/05/12 04:13:16;;;;;;;7.13;6.43;;;;;;;17.96;87.60;99308.94;4822046;29;20186;-77
2022/05/12 04:15:43;;;;;;;7.27;6.57;;;;;;;17.81;89.85;99305.47;4821927;29;20218;-76
2022/05/12 04:18:10;;;;;;;7.20;6.57;;;;;;;17.74;90.66;99307.66;4822618;29;20577;-76
2022/05/12 04:20:37;;;;;;;12.70;10.57;;;;;;;17.72;92.02;99312.53;4822017;29;20589;-76
2022/05/12 04:23:04;;;;;;;8.50;7.70;;;;;;;17.74;91.59;99310.34;4822259;29;20269;-75
2022/05/12 04:25:31;;;;;;;7.50;6.90;;;;;;;17.78;90.99;99316.84;4822512;29;20287;-76
2022/05/12 04:27:57;;;;;;;7.07;6.40;;;;;;;17.86;90.44;99322.53;4822314;29;20227;-76
2022/05/12 04:30:25;;;;;;;7.27;5.80;;;;;;;17.99;88.40;99319.25;4821986;29;20619;-76
2022/05/12 04:32:53;;;;;;;6.83;6.13;;;;;;;18.13;87.54;99315.97;4822091;29;20194;-75
2022/05/12 04:35:20;;;;;;;7.43;6.23;;;;;;;18.22;86.44;99323.25;4822016;29;20923;-75
2022/05/12 04:37:51;;;;;;;5.97;5.57;;;;;;;18.37;85.14;99322.38;4805810;29;20755;-75
2022/05/12 04:40:19;;;;;;;6.37;5.77;;;;;;;18.52;83.91;99319.59;4822227;29;20274;-76
2022/05/12 04:42:50;;;;;;;6.73;6.10;;;;;;;18.68;81.58;99326.59;4822118;29;20224;-75
2022/05/12 04:45:18;;;;;;;7.17;6.57;;;;;;;18.84;80.05;99319.19;4821930;29;20191;-75
2022/05/12 04:47:46;;;;;;;7.10;6.40;;;;;;;18.95;79.87;99322.63;4821790;29;20281;-76
2022/05/12 04:50:34;;;;;;;6.90;6.40;;;;;;;19.15;78.27;99325.22;4821386;29;20218;-75
2022/05/12 04:53:01;;;;;;;7.00;6.40;;;;;;;19.25;77.29;99319.72;4821108;29;20687;-77
2022/05/12 04:55:29;;;;;;;6.93;6.30;;;;;;;19.35;76.23;99325.88;4820579;29;20258;-76
2022/05/12 04:57:57;;;;;;;7.20;6.50;;;;;;;19.51;76.74;99325.75;4805357;29;20268;-77
2022/05/12 05:00:30;;;;;;;7.43;6.70;;;;;;;19.56;75.55;99321.09;4821140;29;20196;-77
2022/05/12 05:02:57;;;;;;;8.07;6.40;;;;;;;19.69;74.86;99331.28;4819103;29;20204;-77
2022/05/12 05:05:24;;;;;;;7.47;6.50;;;;;;;19.78;74.67;99332.28;4819583;29;20201;-77
2022/05/12 05:07:52;;;;;;;7.70;6.73;;;;;;;19.90;74.07;99334.63;4820631;29;20667;-77
2022/05/12 05:10:19;;;;;;;9.10;6.60;;;;;;;19.97;73.48;99329.66;4820751;29;20281;-77
2022/05/12 05:12:45;;;;;;;8.67;6.47;;;;;;;20.11;72.65;99341.47;4820793;29;20627;-76
2022/05/12 05:15:14;;;;;;;7.47;6.80;;;;;;;20.20;72.53;99339.72;4804400;29;20216;-77
2022/05/12 05:17:43;;;;;;;9.17;6.60;;;;;;;20.34;71.62;99353.50;4821138;29;20229;-77
2022/05/12 05:20:14;;;;;;;6.73;6.13;;;;;;;20.46;71.07;99343.00;4821601;29;20225;-77
2022/05/12 05:22:41;;;;;;;7.57;6.17;;;;;;;20.59;70.35;99344.19;4821217;29;20232;-77
2022/05/12 05:25:08;;;;;;;7.83;6.87;;;;;;;20.66;69.59;99352.84;4821555;29;20215;-77
2022/05/12 05:27:37;;;;;;;6.67;5.97;;;;;;;20.79;69.01;99359.47;4804832;29;20615;-77
2022/05/12 05:30:10;;;;;;;7.97;6.00;;;;;;;20.89;68.51;99356.59;4821625;29;20646;-76
2022/05/12 05:32:37;;;;;;;6.90;6.20;;;;;;;21.04;67.81;99357.19;4821383;29;20721;-76
2022/05/12 05:35:05;;;;;;;9.43;5.90;;;;;;;21.13;67.14;99353.81;4821583;29;20561;-77
2022/05/12 05:37:32;;;;;;;13.00;6.17;;;;;;;21.22;67.08;99350.16;4820860;29;20258;-76
2022/05/12 05:39:59;;;;;;;7.63;6.40;;;;;;;21.36;65.47;99358.38;4821204;29;20195;-77
2022/05/12 05:42:26;;;;;;;7.97;6.00;;;;;;;21.51;64.89;99360.84;4821331;29;20253;-77
2022/05/12 05:44:53;;;;;;;11.20;6.50;;;;;;;21.70;64.33;99363.53;4821394;29;20200;-77
2022/05/12 05:47:20;;;;;;;7.80;5.50;;;;;;;21.86;64.15;99371.16;4821066;29;20224;-76
2022/05/12 05:49:47;;;;;;;11.57;6.37;;;;;;;21.95;63.43;99357.69;4821145;29;20217;-77
2022/05/12 05:54:59;;;;;;;7.60;5.90;;;;;;;22.23;63.44;99362.06;4821164;29;20220;-76
2022/05/12 05:57:30;;;;;;;9.47;6.27;;;;;;;22.40;62.76;99362.25;4804613;29;20244;-77
2022/05/12 05:59:58;;;;;;;10.97;6.10;;;;;;;22.54;62.25;99364.97;4805604;29;20176;-76
2022/05/12 06:02:25;;;;;;;12.00;5.70;;;;;;;22.70;61.77;99363.59;4820274;29;20197;-78
2022/05/12 06:04:52;;;;;;;9.60;5.40;;;;;;;22.86;61.13;99366.81;4820511;29;20204;-76
2022/05/12 06:07:19;;;;;;;8.95;5.47;;;;;;;22.97;60.71;99364.63;4821049;29;20200;-79
2022/05/12 06:09:46;;;;;;;9.93;5.72;;;;;;;23.12;60.81;99372.50;4821264;29;20212;-77
2022/05/12 06:12:12;;;;;;;10.77;5.68;;;;;;;23.22;60.14;99375.00;4820830;29;20273;-77
2022/05/12 06:14:39;;;;;;;10.15;5.28;;;;;;;23.33;59.40;99370.91;4821169;29;20228;-77
2022/05/12 06:17:06;;;;;;;11.43;5.82;;;;;;;23.52;58.62;99370.75;4820413;29;21641;-77
2022/05/12 06:19:34;;;;;;;9.35;5.72;;;;;;;23.58;59.03;99369.53;4821065;29;20721;-77
2022/05/12 06:22:01;;;;;;;7.20;5.40;;;;;;;23.77;58.02;99363.84;4804556;29;20194;-79
2022/05/12 06:24:28;;;;;;;7.75;6.05;;;;;;;23.93;57.51;99367.81;4820780;29;20289;-77
2022/05/12 06:26:55;;;;;;;7.47;5.32;;;;;;;24.10;57.33;99379.66;4820812;29;20245;-76
2022/05/12 06:29:21;;;;;;;6.97;5.70;;;;;;;24.24;56.04;99374.13;4804073;29;20213;-77
2022/05/12 06:31:48;;;;;;;8.15;5.35;;;;;;;24.38;55.28;99379.47;4821084;29;20220;-76
2022/05/12 06:34:15;;;;;;;10.30;5.88;;;;;;;24.59;55.27;99383.25;4820880;29;20250;-76
2022/05/12 06:36:43;;;;;;;6.22;5.07;;;;;;;24.68;55.76;99386.03;4822227;29;20302;-80
2022/05/12 06:39:10;;;;;;;9.80;5.63;;;;;;;24.84;55.42;99393.47;4807270;29;20600;-81
2022/05/12 06:41:38;;;;;;;6.32;5.53;;;;;;;24.96;54.88;99388.19;4823807;29;20300;-80
2022/05/12 06:44:05;;;;;;;9.02;5.35;;;;;;;25.14;54.71;99394.53;4824366;29;20201;-80
2022/05/12 06:46:32;;;;;;;11.10;5.65;;;;;;;25.35;53.56;99387.28;4823774;29;20226;-80
2022/05/12 06:49:02;;;;;;;8.43;5.50;;;;;;;25.48;53.78;99385.50;4824175;29;20228;-81
2022/05/12 06:51:29;;;;;;;8.20;5.82;;;;;;;25.64;53.30;99388.59;4823734;29;20280;-80
2022/05/12 06:53:56;;;;;;;8.55;5.63;;;;;;;25.82;52.15;99392.91;4823844;29;20653;-79
2022/05/12 06:56:23;;;;;;;9.70;5.55;;;;;;;25.92;51.47;99381.59;4823788;29;20228;-77
2022/05/12 06:58:49;;;;;;;9.57;5.30;;;;;;;26.11;51.21;99392.19;4824056;29;20676;-79
2022/05/12 07:01:16;;;;;;;11.07;5.45;;;;;;;26.18;51.73;99392.47;4807049;29;20232;-78
2022/05/12 07:03:43;;;;;;;8.43;5.45;;;;;;;26.34;51.20;99398.28;4823919;29;20210;-80
2022/05/12 07:06:10;;;;;;;7.22;5.50;;;;;;;26.45;51.20;99381.13;4823903;29;20669;-80
2022/05/12 07:08:40;;;;;;;9.88;5.43;;;;;;;26.62;51.67;99380.22;4823477;29;20208;-80
2022/05/12 07:11:10;;;;;;;8.18;5.25;;;;;;;26.80;51.69;99378.97;4807871;29;20721;-79
2022/05/12 07:13:37;;;;;;;5.82;5.20;;;;;;;26.94;51.66;99384.25;4807708;29;20592;-79
2022/05/12 07:16:05;;;;;;;8.63;5.22;;;;;;;27.07;51.78;99386.75;4806970;29;20229;-79
2022/05/12 07:18:34;;;;;;;5.55;4.90;;;;;;;27.23;51.36;99380.66;4823669;29;20233;-80
2022/05/12 07:26:49;;;;;;;4.38;3.78;;;;;;;27.80;42.70;99376.13;4823248;29;20260;-79
2022/05/12 07:29:19;;;;;;;4.90;3.70;;;;;;;28.00;41.49;99390.97;4806674;29;20552;-81
2022/05/12 07:31:48;;;;;;;4.32;3.47;;;;;;;28.07;38.87;99393.97;4823753;29;20485;-80
2022/05/12 07:34:16;;;;;;;3.85;3.50;;;;;;;28.12;38.40;99381.97;4807557;29;20588;-79
2022/05/12 07:36:46;;;;;;;5.70;3.40;;;;;;;28.32;38.54;99403.91;4807041;29;20244;-80
2022/05/12 07:39:15;;;;;;;4.95;3.00;;;;;;;28.42;34.62;99392.44;4823165;29;20730;-80
2022/05/12 07:41:42;;;;;;;9.75;2.78;;;;;;;28.45;34.61;99393.72;4822969;29;20194;-79
2022/05/12 07:44:13;;;;;;;3.85;2.85;;;;;;;28.62;33.78;99378.91;4823423;29;20194;-76
2022/05/12 07:46:40;;;;;;;5.90;2.90;;;;;;;28.57;33.72;99387.41;4807094;29;20186;-77
2022/05/12 07:49:07;;;;;;;3.42;2.65;;;;;;;28.56;34.04;99394.84;4821842;29;20682;-79
2022/05/12 07:51:34;;;;;;;5.65;2.92;;;;;;;28.62;32.37;99382.47;4822108;29;20269;-79
2022/05/12 07:54:00;;;;;;;3.10;2.70;;;;;;;28.74;31.61;99387.22;4823061;29;20213;-79
2022/05/12 07:56:28;;;;;;;5.30;3.20;;;;;;;28.73;32.63;99383.66;4822677;29;20190;-79
2022/05/12 07:58:58;;;;;;;5.25;3.08;;;;;;;28.96;32.68;99397.75;4822698;29;20225;-79
2022/05/12 08:01:26;;;;;;;4.72;2.88;;;;;;;29.06;31.22;99393.72;4806309;29;20190;-80
2022/05/12 08:03:53;;;;;;;3.08;2.65;;;;;;;29.13;32.23;99391.97;4822897;29;20344;-80
2022/05/12 08:06:20;;;;;;;3.45;2.80;;;;;;;29.19;31.85;99382.31;4822785;29;20186;-79
2022/05/12 08:08:48;;;;;;;2.97;2.75;;;;;;;29.39;32.79;99388.84;4822743;29;20281;-79
2022/05/12 08:11:16;;;;;;;5.82;2.97;;;;;;;29.29;31.38;99389.28;4822765;29;20194;-79
2022/05/12 08:13:46;;;;;;;2.92;2.67;;;;;;;29.42;31.26;99390.88;4822640;29;20205;-79
2022/05/12 08:16:15;;;;;;;3.58;2.88;;;;;;;29.51;31.44;99391.53;4806671;29;20249;-79
2022/05/12 08:18:44;;;;;;;3.05;2.78;;;;;;;29.63;31.90;99383.19;4822151;29;20230;-80
2022/05/12 08:21:13;;;;;;;6.75;3.30;;;;;;;29.74;31.99;99392.59;4822703;29;20198;-80
2022/05/12 08:23:40;;;;;;;2.63;2.42;;;;;;;29.83;31.22;99406.25;4821936;29;20245;-79
2022/05/12 08:26:07;;;;;;;3.78;2.90;;;;;;;29.82;30.25;99396.34;4822271;29;20198;-78
2022/05/12 08:28:33;;;;;;;6.38;2.80;;;;;;;29.70;30.41;99397.22;4821680;29;20778;-79
2022/05/12 08:31:00;;;;;;;6.20;3.05;;;;;;;29.77;29.81;99402.91;4806454;29;20225;-79
2022/05/12 08:33:33;;;;;;;4.10;2.60;;;;;;;29.79;29.40;99412.81;4822285;29;20213;-79
2022/05/12 08:36:01;;;;;;;3.58;2.70;;;;;;;29.83;30.14;99409.00;4822307;29;20202;-79
2022/05/12 08:38:27;;;;;;;5.57;2.70;;;;;;;29.73;29.15;99388.22;4821754;29;20237;-79
2022/05/12 08:41:09;;;;;;;5.63;3.03;;;;;;;29.69;30.13;99409.41;4822251;29;20229;-79
2022/05/12 08:43:44;;;;;;;3.47;2.40;;;;;;;29.62;29.38;99408.41;4822209;29;20205;-79
2022/05/12 08:46:19;;;;;;;5.35;3.00;;;;;;;29.73;29.93;99403.97;4822160;29;20277;-80
2022/05/12 08:48:47;;;;;;;2.83;2.63;;;;;;;29.85;30.25;99403.94;4806058;29;20189;-79
2022/05/12 08:51:19;;;;;;;4.18;2.90;;;;;;;29.87;29.94;99412.66;4822309;29;20250;-79
2022/05/12 08:53:53;;;;;;;5.05;2.97;;;;;;;29.74;30.01;99408.34;4821880;29;20182;-79
2022/05/12 08:56:22;;;;;;;5.15;2.60;;;;;;;29.87;30.19;99411.84;4821764;29;20250;-79
2022/05/12 08:58:51;;;;;;;5.28;2.78;;;;;;;29.90;29.48;99414.75;4805241;29;20460;-79
2022/05/12 09:01:40;;;;;;;3.22;2.85;;;;;;;29.87;29.44;99411.84;4821214;29;20221;-79
2022/05/12 09:04:36;;;;;;;4.07;2.90;;;;;;;30.11;29.59;99415.31;4805332;29;20639;-79
2022/05/12 09:07:23;;;;;;;3.65;2.80;;;;;;;30.35;29.16;99414.38;4821775;29;20242;-79
2022/05/12 09:09:56;;;;;;;3.15;2.40;;;;;;;30.52;28.24;99418.75;4805654;29;20277;-79
2022/05/12 09:12:35;;;;;;;3.10;2.33;;;;;;;30.59;27.60;99410.66;4821843;29;20702;-79
2022/05/12 09:15:13;;;;;;;3.35;2.38;;;;;;;30.67;27.37;99414.38;4805691;29;20282;-79
2022/05/12 09:17:45;;;;;;;3.80;2.70;;;;;;;30.76;27.41;99415.00;4805194;29;20241;-79
2022/05/12 09:20:12;;;;;;;3.72;2.60;;;;;;;30.73;26.91;99433.13;4821846;29;20178;-79
2022/05/12 09:22:41;;;;;;;3.35;2.60;;;;;;;30.66;26.88;99410.00;4804775;29;20242;-79
2022/05/12 09:25:10;;;;;;;4.80;2.45;;;;;;;30.73;27.11;99427.59;4805481;29;20570;-79
2022/05/12 09:27:40;;;;;;;3.10;2.60;;;;;;;30.71;26.80;99418.84;4805189;29;20174;-79
2022/05/12 09:30:10;;;;;;;7.65;2.75;;;;;;;30.60;28.97;99417.78;4821482;29;20285;-79
2022/05/12 09:32:38;;;;;;;3.28;2.38;;;;;;;30.65;26.65;99422.25;4821323;29;20205;-79
2022/05/12 09:35:20;;;;;;;3.40;2.50;;;;;;;30.57;27.16;99437.84;4821546;29;20552;-79
2022/05/12 09:37:48;;;;;;;6.07;2.65;;;;;;;30.61;27.24;99420.19;4821789;29;20229;-79
2022/05/12 09:40:18;;;;;;;3.67;2.35;;;;;;;30.19;26.44;99439.22;4821047;29;20236;-80
2022/05/12 09:42:53;;;;;;;3.33;2.45;;;;;;;30.52;26.97;99430.63;4820972;29;20190;-79
2022/05/12 09:45:27;;;;;;;5.65;2.28;;;;;;;30.54;27.56;99430.28;4805084;29;20209;-79
2022/05/12 09:48:18;;;;;;;5.68;2.50;;;;;;;30.60;26.38;99418.59;4821303;29;20190;-79
2022/05/12 09:50:46;;;;;;;6.78;2.67;;;;;;;30.84;26.66;99417.56;4821257;29;20245;-79
2022/05/12 09:53:24;;;;;;;5.45;2.88;;;;;;;30.53;26.21;99423.94;4804563;29;20602;-79
2022/05/12 09:56:04;;;;;;;3.72;2.30;;;;;;;30.79;26.66;99404.03;4821177;29;20542;-79
2022/05/12 09:58:41;;;;;;;3.00;2.42;;;;;;;30.86;26.93;99404.19;4804821;29;20232;-79
2022/05/12 10:01:23;;;;;;;4.90;2.30;;;;;;;31.00;27.01;99414.78;4805856;29;20269;-79
2022/05/12 10:09:30;;;;;;;3.90;2.65;;;;;;;30.99;27.42;99404.88;4807130;29;20205;-79
2022/05/12 10:12:19;;;;;;;7.00;2.50;;;;;;;31.18;26.98;99413.25;4820588;29;20178;-78
2022/05/12 10:14:53;;;;;;;5.43;2.60;;;;;;;31.32;27.52;99405.25;4804402;29;20246;-78
2022/05/12 10:17:48;;;;;;;5.40;2.60;;;;;;;31.15;26.94;99408.44;4804093;29;20237;-79
2022/05/12 10:20:18;;;;;;;6.68;2.90;;;;;;;31.06;27.13;99410.63;4817543;29;20236;-79
2022/05/12 10:22:54;;;;;;;3.50;2.58;;;;;;;30.89;27.57;99409.00;4798655;29;20243;-79
2022/05/12 10:25:43;;;;;;;5.68;3.20;;;;;;;30.82;27.24;99414.38;4802377;29;20640;-79
2022/05/12 10:28:16;;;;;;;9.05;2.85;;;;;;;30.93;26.88;99425.69;4802442;29;20179;-79
2022/05/12 10:31:09;;;;;;;6.32;2.97;;;;;;;30.72;27.81;99409.38;4802950;29;20187;-79
2022/05/12 10:33:49;;;;;;;5.60;2.80;;;;;;;30.63;27.10;99413.50;4786379;29;20301;-79
2022/05/12 10:36:33;;;;;;;3.70;2.83;;;;;;;30.77;27.42;99417.41;4786463;29;20178;-81
2022/05/12 10:39:21;;;;;;;5.45;2.50;;;;;;;30.93;28.84;99426.50;4802503;29;20206;-79
2022/05/12 10:41:57;;;;;;;8.68;2.83;;;;;;;31.02;28.81;99431.88;4802367;29;20187;-79
2022/05/12 10:44:52;;;;;;;4.35;2.80;;;;;;;31.15;28.33;99425.06;4786465;29;20595;-79
2022/05/12 10:47:56;;;;;;;5.15;2.83;;;;;;;30.95;27.38;99412.28;4802299;29;20625;-79
2022/05/12 10:50:30;;;;;;;3.88;2.47;;;;;;;31.14;28.39;99417.91;4801853;29;20294;-79
2022/05/12 10:53:19;;;;;;;5.97;2.53;;;;;;;31.13;27.44;99419.06;4785918;29;20265;-78
2022/05/12 10:55:57;;;;;;;3.60;2.67;;;;;;;31.29;27.11;99430.09;4802713;29;20297;-78
2022/05/12 10:58:39;;;;;;;3.35;2.55;;;;;;;31.19;27.60;99433.44;4785923;29;20226;-79
2022/05/12 11:01:15;;;;;;;4.82;2.70;;;;;;;31.26;27.04;99428.06;4771368;29;20244;-79
2022/05/12 11:03:48;;;;;;;5.45;2.70;;;;;;;30.99;27.10;99430.56;4801991;29;20217;-79
2022/05/12 11:06:17;;;;;;;4.18;2.70;;;;;;;31.16;28.01;99428.63;4802345;29;20243;-79
2022/05/12 11:08:52;;;;;;;4.32;2.90;;;;;;;31.26;27.25;99441.91;4786003;29;20226;-79
2022/05/12 11:11:24;;;;;;;4.18;2.70;;;;;;;31.33;26.93;99425.44;4802235;29;20780;-79
2022/05/12 11:13:58;;;;;;;8.20;2.80;;;;;;;31.33;27.23;99448.38;4802177;29;20445;-79
2022/05/12 11:16:35;;;;;;;4.00;2.63;;;;;;;31.28;27.81;99443.13;4785848;29;20190;-79
2022/05/12 11:19:22;;;;;;;6.50;3.25;;;;;;;31.32;28.00;99443.19;4785972;29;20229;-79
2022/05/12 11:22:07;;;;;;;4.28;2.83;;;;;;;31.17;27.45;99441.31;4786141;29;20281;-79
2022/05/12 11:24:59;;;;;;;6.05;3.15;;;;;;;31.38;27.78;99433.47;4823377;29;20210;-78
2022/05/12 11:31:17;;;;;;;7.40;3.17;;;;;;;31.44;27.63;99432.00;4823266;29;20210;-79
2022/05/12 11:33:48;;;;;;;4.95;2.90;;;;;;;31.44;28.28;99426.47;4810279;29;20217;-79
2022/05/12 11:36:16;;;;;;;3.60;2.78;;;;;;;31.48;28.50;99436.47;4807236;29;20182;-79
2022/05/12 11:38:53;;;;;;;3.88;2.78;;;;;;;31.48;29.05;99447.53;4806964;29;20560;-79
2022/05/12 11:41:19;;;;;;;4.18;3.00;;;;;;;31.41;28.47;99458.44;4823062;29;20234;-79
2022/05/12 11:46:42;;;;;;;8.90;3.20;;;;;;;31.45;28.21;99444.66;4809592;29;20182;-79
2022/05/12 11:49:31;;;;;;;5.72;3.05;;;;;;;31.43;28.42;99458.88;4822884;29;20203;-79
2022/05/12 11:52:16;;;;;;;6.60;3.35;;;;;;;31.33;28.95;99440.06;4807139;29;20224;-82
2022/05/12 11:54:58;;;;;;;3.70;2.92;;;;;;;31.29;29.14;99444.75;4823361;29;20702;-79
2022/05/12 11:57:38;;;;;;;4.68;2.90;;;;;;;31.41;29.81;99449.31;4822738;29;20265;-78
2022/05/12 12:00:09;;;;;;;5.65;3.38;;;;;;;31.33;29.87;99447.56;4806934;29;20205;-79
2022/05/12 12:02:48;;;;;;;6.70;3.13;;;;;;;31.39;29.56;99440.59;4805885;29;20243;-79
2022/05/12 12:05:27;;;;;;;5.65;3.10;;;;;;;31.63;29.25;99445.91;4806496;29;20178;-79
2022/05/12 12:08:01;;;;;;;6.00;3.40;;;;;;;31.50;29.44;99446.38;4822368;29;20230;-79